Time;durP1;ratioP1;P1;durP2;ratioP2;P2;SDS_P1;SDS_P2;PMS_P1;PMS_P2;Temp;Humidity;BMP_temperature;BMP_pressure;BME280_temperature;BME280_humidity;BME280_pressure;Samples;Min_cycle;Max_cycle;Signal;HPM_P1;HPM_P2
2022/01/15 00:00:43;;;;;;;0.00;0.00;;;;;;;;;;1844926;76;26285;-39
2022/01/15 00:03:11;;;;;;;0.08;0.00;;;;;;;;;;1841733;76;26217;-41
2022/01/15 00:05:39;;;;;;;0.60;0.20;;;;;;;;;;1841790;76;26202;-39
2022/01/15 00:08:07;;;;;;;0.33;0.10;;;;;;;;;;1847948;76;26218;-31
2022/01/15 00:10:34;;;;;;;0.33;0.13;;;;;;;;;;1861975;76;26205;-36
2022/01/15 00:13:02;;;;;;;0.10;0.10;;;;;;;;;;1847049;76;26793;-27
2022/01/15 00:15:34;;;;;;;0.20;0.20;;;;;;;;;;1838936;76;26346;-35
2022/01/15 00:18:04;;;;;;;0.10;0.00;;;;;;;;;;1845382;76;27035;-33
2022/01/15 00:20:29;;;;;;;0.10;0.10;;;;;;;;;;1841744;76;26217;-37
2022/01/15 00:22:57;;;;;;;1.30;0.10;;;;;;;;;;1830417;76;26311;-37
2022/01/15 00:25:25;;;;;;;1.35;0.10;;;;;;;;;;1845884;76;26331;-39
2022/01/15 00:27:53;;;;;;;2.10;0.10;;;;;;;;;;1849695;76;26668;-31
2022/01/15 00:30:21;;;;;;;0.05;0.05;;;;;;;;;;1843467;76;26265;-36
2022/01/15 00:32:49;;;;;;;0.17;0.17;;;;;;;;;;1843047;76;26773;-32
2022/01/15 00:35:18;;;;;;;2.00;0.13;;;;;;;;;;1834190;76;26787;-28
2022/01/15 00:37:47;;;;;;;0.20;0.10;;;;;;;;;;1842737;76;26594;-30
2022/01/15 00:40:16;;;;;;;0.20;0.13;;;;;;;;;;1844334;76;26646;-42
2022/01/15 00:42:44;;;;;;;0.10;0.10;;;;;;;;;;1843081;76;26754;-46
2022/01/15 00:45:17;;;;;;;0.10;0.10;;;;;;;;;;1844563;76;26958;-40
2022/01/15 00:47:42;;;;;;;0.62;0.10;;;;;;;;;;1841308;76;26266;-27
2022/01/15 00:50:09;;;;;;;0.10;0.10;;;;;;;;;;1843309;76;26205;-36
2022/01/15 00:52:37;;;;;;;0.68;0.15;;;;;;;;;;1840044;76;26265;-31
2022/01/15 00:55:05;;;;;;;0.20;0.20;;;;;;;;;;1844114;76;26323;-28
2022/01/15 00:57:32;;;;;;;0.70;0.10;;;;;;;;;;1845538;76;26817;-42
2022/01/15 01:00:00;;;;;;;0.20;0.20;;;;;;;;;;1846957;76;26178;-27
2022/01/15 01:02:27;;;;;;;0.10;0.10;;;;;;;;;;1847400;76;26647;-34
2022/01/15 01:04:55;;;;;;;1.75;0.10;;;;;;;;;;1850602;76;26258;-42
2022/01/15 01:07:22;;;;;;;0.10;0.10;;;;;;;;;;1843730;76;26405;-32
2022/01/15 01:12:45;;;;;;;2.37;0.10;;;;;;;;;;1842826;76;26350;-47
2022/01/15 01:20:45;;;;;;;0.28;0.28;;;;;;;;;;1844837;76;27179;-36
2022/01/15 01:22:58;;;;;;;0.23;0.10;;;;;;;;;;1840966;76;26702;-36
2022/01/15 01:25:40;;;;;;;0.20;0.20;;;;;;;;;;1842628;76;26282;-46
2022/01/15 01:28:13;;;;;;;0.00;0.00;;;;;;;;;;1840675;76;26339;-47
2022/01/15 01:30:42;;;;;;;0.10;0.10;;;;;;;;;;1839578;76;26719;-30
2022/01/15 01:33:17;;;;;;;1.85;0.20;;;;;;;;;;1841112;76;26383;-29
2022/01/15 01:35:42;;;;;;;0.08;0.08;;;;;;;;;;1841325;76;25811;-30
2022/01/15 01:38:13;;;;;;;0.30;0.30;;;;;;;;;;1850521;76;26872;-40
2022/01/15 01:40:42;;;;;;;0.10;0.10;;;;;;;;;;1845154;76;26201;-34
2022/01/15 01:43:58;;;;;;;0.05;0.05;;;;;;;;;;1843211;76;26864;-47
2022/01/15 01:45:36;;;;;;;0.10;0.10;;;;;;;;;;1833822;76;26714;-33
2022/01/15 01:48:04;;;;;;;0.10;0.10;;;;;;;;;;1845253;76;26249;-38
2022/01/15 01:50:32;;;;;;;0.45;0.17;;;;;;;;;;1837468;76;26338;-32
2022/01/15 01:52:59;;;;;;;0.15;0.10;;;;;;;;;;1846579;76;26247;-38
2022/01/15 01:55:28;;;;;;;0.10;0.10;;;;;;;;;;1843469;76;26959;-27
2022/01/15 01:57:57;;;;;;;0.03;0.03;;;;;;;;;;1836040;76;27024;-31
2022/01/15 02:00:25;;;;;;;0.10;0.10;;;;;;;;;;1843954;76;26268;-33
2022/01/15 02:02:53;;;;;;;0.10;0.10;;;;;;;;;;1847895;76;26316;-28
2022/01/15 02:05:21;;;;;;;0.10;0.10;;;;;;;;;;1843470;76;26808;-50
2022/01/15 02:07:49;;;;;;;0.20;0.20;;;;;;;;;;1845238;76;26264;-39
2022/01/15 02:10:18;;;;;;;0.13;0.13;;;;;;;;;;1842163;76;26736;-36
2022/01/15 02:12:46;;;;;;;0.05;0.05;;;;;;;;;;1850129;76;26789;-30
2022/01/15 02:15:15;;;;;;;0.20;0.20;;;;;;;;;;1842479;76;26349;-30
2022/01/15 02:17:44;;;;;;;0.10;0.10;;;;;;;;;;1852700;76;26362;-33
2022/01/15 02:20:49;;;;;;;0.20;0.20;;;;;;;;;;1843074;76;26197;-31
2022/01/15 02:25:27;;;;;;;0.10;0.10;;;;;;;;;;1842961;76;26686;-27
2022/01/15 02:27:54;;;;;;;1.27;0.10;;;;;;;;;;1842545;76;26772;-48
2022/01/15 02:30:21;;;;;;;0.20;0.20;;;;;;;;;;1846568;76;26783;-38
2022/01/15 02:32:48;;;;;;;0.20;0.20;;;;;;;;;;1846020;76;26381;-35
2022/01/15 02:35:16;;;;;;;0.23;0.23;;;;;;;;;;1856842;75;26841;-34
2022/01/15 02:37:43;;;;;;;0.40;0.30;;;;;;;;;;1856909;75;27602;-37
2022/01/15 02:40:11;;;;;;;0.25;0.10;;;;;;;;;;1858532;75;26319;-35
2022/01/15 02:42:39;;;;;;;0.30;0.10;;;;;;;;;;1856801;75;26310;-44
2022/01/15 02:45:08;;;;;;;0.20;0.20;;;;;;;;;;1856374;75;26766;-29
2022/01/15 02:50:22;;;;;;;0.00;0.00;;;;;;;;;;1854289;75;26339;-37
2022/01/15 02:52:49;;;;;;;0.10;0.10;;;;;;;;;;1852859;75;26240;-34
2022/01/15 02:55:17;;;;;;;0.17;0.17;;;;;;;;;;1860967;75;26659;-38
2022/01/15 02:57:44;;;;;;;0.10;0.10;;;;;;;;;;1858844;75;26355;-30
2022/01/15 03:00:12;;;;;;;0.13;0.13;;;;;;;;;;1856720;75;25634;-48
2022/01/15 03:02:39;;;;;;;0.08;0.08;;;;;;;;;;1860574;75;26808;-35
2022/01/15 03:05:07;;;;;;;0.15;0.15;;;;;;;;;;1858045;75;26677;-27
2022/01/15 03:07:36;;;;;;;0.20;0.20;;;;;;;;;;1859256;75;26264;-33
2022/01/15 03:10:04;;;;;;;0.17;0.17;;;;;;;;;;1857203;75;26359;-29
2022/01/15 03:12:31;;;;;;;0.20;0.10;;;;;;;;;;1860799;75;26255;-45
2022/01/15 03:15:02;;;;;;;0.10;0.10;;;;;;;;;;1855892;75;26413;-36
2022/01/15 03:17:28;;;;;;;0.90;0.20;;;;;;;;;;1858435;75;26328;-27
2022/01/15 03:19:55;;;;;;;0.20;0.20;;;;;;;;;;1858281;75;26349;-45
2022/01/15 03:22:22;;;;;;;0.23;0.23;;;;;;;;;;1851708;75;26799;-45
2022/01/15 03:24:50;;;;;;;0.23;0.23;;;;;;;;;;1847854;75;26244;-34
2022/01/15 03:27:17;;;;;;;0.17;0.17;;;;;;;;;;1863783;75;26229;-34
2022/01/15 03:29:45;;;;;;;0.25;0.25;;;;;;;;;;1860679;75;26744;-35
2022/01/15 03:32:12;;;;;;;0.57;0.20;;;;;;;;;;1860657;75;26328;-35
2022/01/15 03:34:39;;;;;;;0.40;0.20;;;;;;;;;;1864589;75;26296;-42
2022/01/15 03:37:06;;;;;;;0.68;0.20;;;;;;;;;;1852605;75;26278;-33
2022/01/15 03:39:35;;;;;;;0.17;0.17;;;;;;;;;;1866647;75;26252;-31
2022/01/15 03:42:03;;;;;;;0.20;0.20;;;;;;;;;;1862701;75;26284;-33
2022/01/15 03:44:30;;;;;;;0.23;0.15;;;;;;;;;;1862360;75;26661;-32
2022/01/15 03:46:57;;;;;;;0.17;0.17;;;;;;;;;;1848452;75;26996;-33
2022/01/15 03:49:25;;;;;;;0.20;0.20;;;;;;;;;;1860322;75;26736;-30
2022/01/15 03:51:52;;;;;;;0.20;0.20;;;;;;;;;;1860421;75;27624;-33
2022/01/15 03:54:19;;;;;;;0.20;0.20;;;;;;;;;;1863658;76;26295;-31
2022/01/15 03:56:46;;;;;;;0.20;0.20;;;;;;;;;;1870608;75;26292;-27
2022/01/15 03:59:13;;;;;;;0.20;0.20;;;;;;;;;;1844473;75;26269;-31
2022/01/15 04:01:41;;;;;;;0.10;0.10;;;;;;;;;;1856087;75;26263;-43
2022/01/15 04:04:08;;;;;;;0.20;0.20;;;;;;;;;;1863694;75;26247;-27
2022/01/15 04:06:35;;;;;;;0.10;0.10;;;;;;;;;;1866437;75;26195;-34
2022/01/15 04:09:03;;;;;;;0.15;0.13;;;;;;;;;;1858777;75;26265;-37
2022/01/15 04:11:30;;;;;;;0.20;0.20;;;;;;;;;;1868038;75;26279;-37
2022/01/15 04:13:58;;;;;;;0.37;0.13;;;;;;;;;;1847112;75;26375;-27
2022/01/15 04:16:25;;;;;;;0.20;0.20;;;;;;;;;;1851670;75;26263;-49
2022/01/15 04:18:52;;;;;;;0.20;0.20;;;;;;;;;;1864821;75;26237;-34
2022/01/15 04:21:19;;;;;;;0.20;0.20;;;;;;;;;;1860515;75;26261;-33
2022/01/15 04:23:46;;;;;;;0.57;0.30;;;;;;;;;;1862270;75;26350;-34
2022/01/15 04:26:14;;;;;;;0.47;0.20;;;;;;;;;;1861770;75;26261;-38
2022/01/15 04:28:41;;;;;;;0.20;0.20;;;;;;;;;;1845964;75;26791;-37
2022/01/15 04:31:09;;;;;;;0.10;0.10;;;;;;;;;;1846820;75;25323;-34
2022/01/15 04:33:37;;;;;;;0.65;0.23;;;;;;;;;;1862596;75;26299;-46
2022/01/15 04:36:06;;;;;;;0.20;0.20;;;;;;;;;;1842574;76;26384;-42
2022/01/15 04:38:37;;;;;;;0.28;0.28;;;;;;;;;;1851059;76;26243;-42
2022/01/15 04:41:03;;;;;;;0.20;0.20;;;;;;;;;;1831249;76;26267;-32
2022/01/15 04:43:30;;;;;;;0.70;0.30;;;;;;;;;;1833615;76;26304;-43
2022/01/15 04:45:58;;;;;;;0.20;0.20;;;;;;;;;;1833675;76;26776;-28
2022/01/15 04:48:25;;;;;;;0.20;0.20;;;;;;;;;;1837542;76;26797;-35
2022/01/15 04:50:52;;;;;;;1.32;0.20;;;;;;;;;;1842725;76;26272;-33
2022/01/15 04:53:20;;;;;;;0.10;0.10;;;;;;;;;;1851633;76;26314;-33
2022/01/15 04:55:47;;;;;;;0.13;0.13;;;;;;;;;;1849361;76;26748;-28
2022/01/15 04:58:14;;;;;;;0.10;0.10;;;;;;;;;;1849101;76;26733;-34
2022/01/15 05:00:41;;;;;;;0.20;0.20;;;;;;;;;;1844617;76;26735;-36
2022/01/15 05:03:09;;;;;;;0.20;0.20;;;;;;;;;;1845528;76;26257;-32
2022/01/15 05:05:36;;;;;;;0.10;0.10;;;;;;;;;;1848537;76;26183;-40
2022/01/15 05:08:05;;;;;;;0.15;0.15;;;;;;;;;;1846184;76;26350;-34
2022/01/15 05:10:32;;;;;;;1.07;0.30;;;;;;;;;;1846482;76;26299;-33
2022/01/15 05:13:02;;;;;;;0.17;0.17;;;;;;;;;;1835545;76;26313;-42
2022/01/15 05:15:29;;;;;;;0.35;0.35;;;;;;;;;;1844057;76;26355;-36
2022/01/15 05:17:56;;;;;;;0.10;0.10;;;;;;;;;;1832273;76;26280;-28
2022/01/15 05:20:23;;;;;;;0.30;0.30;;;;;;;;;;1832797;76;26296;-28
2022/01/15 05:22:50;;;;;;;0.20;0.20;;;;;;;;;;1846422;76;26697;-39
2022/01/15 05:25:18;;;;;;;0.20;0.20;;;;;;;;;;1845299;76;26547;-33
2022/01/15 05:27:46;;;;;;;0.10;0.10;;;;;;;;;;1847311;76;26810;-32
2022/01/15 05:30:14;;;;;;;0.15;0.15;;;;;;;;;;1837334;76;26736;-33
2022/01/15 05:32:41;;;;;;;0.20;0.20;;;;;;;;;;1842810;76;26320;-34
2022/01/15 05:35:10;;;;;;;0.42;0.20;;;;;;;;;;1848747;76;26679;-31
2022/01/15 05:37:37;;;;;;;0.40;0.40;;;;;;;;;;1848911;76;26734;-38
2022/01/15 05:40:06;;;;;;;0.10;0.10;;;;;;;;;;1847075;76;26674;-42
2022/01/15 05:42:33;;;;;;;0.20;0.20;;;;;;;;;;1834256;76;26656;-33
2022/01/15 05:45:01;;;;;;;3.80;0.40;;;;;;;;;;1846307;76;26259;-27
2022/01/15 05:47:28;;;;;;;0.15;0.13;;;;;;;;;;1843038;76;26293;-38
2022/01/15 05:49:55;;;;;;;0.20;0.20;;;;;;;;;;1832744;76;26905;-35
2022/01/15 05:52:22;;;;;;;0.35;0.35;;;;;;;;;;1852746;76;27369;-27
2022/01/15 05:54:50;;;;;;;0.20;0.20;;;;;;;;;;1853526;76;26779;-44
2022/01/15 05:57:17;;;;;;;0.20;0.20;;;;;;;;;;1840729;76;26308;-44
2022/01/15 05:59:45;;;;;;;0.10;0.10;;;;;;;;;;1847733;76;26566;-49
2022/01/15 06:02:12;;;;;;;0.25;0.25;;;;;;;;;;1847843;76;26305;-32
2022/01/15 06:04:39;;;;;;;0.10;0.10;;;;;;;;;;1845846;76;26307;-34
2022/01/15 06:07:06;;;;;;;0.30;0.30;;;;;;;;;;1845649;76;26254;-29
2022/01/15 06:09:34;;;;;;;0.30;0.30;;;;;;;;;;1848562;76;26186;-27
2022/01/15 06:12:02;;;;;;;0.20;0.20;;;;;;;;;;1846626;76;26238;-39
2022/01/15 06:14:30;;;;;;;0.62;0.20;;;;;;;;;;1853547;76;26329;-34
2022/01/15 06:16:58;;;;;;;0.30;0.30;;;;;;;;;;1839090;76;26331;-28
2022/01/15 06:19:26;;;;;;;0.20;0.20;;;;;;;;;;1844891;76;26292;-29
2022/01/15 06:21:54;;;;;;;0.10;0.10;;;;;;;;;;1838301;76;26672;-29
2022/01/15 06:24:21;;;;;;;0.10;0.10;;;;;;;;;;1836537;76;26266;-35
2022/01/15 06:26:48;;;;;;;0.17;0.17;;;;;;;;;;1839928;76;26330;-27
2022/01/15 06:29:16;;;;;;;0.30;0.30;;;;;;;;;;1843577;76;26253;-37
2022/01/15 06:31:43;;;;;;;0.17;0.17;;;;;;;;;;1843243;76;26729;-35
2022/01/15 06:34:10;;;;;;;0.30;0.30;;;;;;;;;;1841878;76;26646;-27
2022/01/15 06:36:37;;;;;;;0.30;0.30;;;;;;;;;;1853167;75;26298;-36
2022/01/15 06:39:05;;;;;;;0.20;0.20;;;;;;;;;;1860383;75;26697;-42
2022/01/15 06:41:32;;;;;;;0.30;0.30;;;;;;;;;;1857240;75;26241;-31
2022/01/15 06:43:59;;;;;;;0.40;0.40;;;;;;;;;;1859432;75;26256;-50
2022/01/15 06:46:27;;;;;;;0.20;0.20;;;;;;;;;;1860682;75;26252;-40
2022/01/15 06:48:54;;;;;;;1.55;0.30;;;;;;;;;;1853166;75;26222;-27
2022/01/15 06:51:21;;;;;;;0.40;0.40;;;;;;;;;;1864165;75;26269;-27
2022/01/15 06:53:48;;;;;;;0.20;0.20;;;;;;;;;;1863640;75;26385;-35
2022/01/15 06:56:16;;;;;;;0.20;0.20;;;;;;;;;;1853128;77;26241;-31
2022/01/15 06:58:43;;;;;;;0.23;0.23;;;;;;;;;;1859454;75;26653;-31
2022/01/15 07:01:10;;;;;;;0.10;0.10;;;;;;;;;;1852486;75;26320;-49
2022/01/15 07:03:37;;;;;;;0.20;0.20;;;;;;;;;;1857866;75;26353;-47
2022/01/15 07:06:05;;;;;;;0.20;0.20;;;;;;;;;;1852480;77;26347;-44
2022/01/15 07:08:32;;;;;;;0.20;0.20;;;;;;;;;;1857409;75;26327;-37
2022/01/15 07:10:59;;;;;;;0.17;0.17;;;;;;;;;;1855005;75;25755;-46
2022/01/15 07:13:29;;;;;;;0.20;0.20;;;;;;;;;;1858437;75;26682;-29
2022/01/15 07:15:56;;;;;;;0.33;0.33;;;;;;;;;;1841724;75;26272;-34
2022/01/15 07:18:23;;;;;;;0.20;0.20;;;;;;;;;;1860474;75;26264;-33
2022/01/15 07:20:54;;;;;;;0.50;0.50;;;;;;;;;;1854492;75;26650;-26
2022/01/15 07:23:21;;;;;;;0.40;0.40;;;;;;;;;;1836797;75;26304;-31
2022/01/15 07:25:48;;;;;;;0.30;0.30;;;;;;;;;;1867731;75;26272;-35
2022/01/15 07:28:18;;;;;;;0.28;0.28;;;;;;;;;;1859226;75;25706;-29
2022/01/15 07:30:45;;;;;;;0.72;0.42;;;;;;;;;;1853971;75;26311;-32
2022/01/15 07:33:13;;;;;;;0.20;0.20;;;;;;;;;;1862744;75;26296;-46
2022/01/15 07:35:42;;;;;;;2.83;0.42;;;;;;;;;;1869373;75;26655;-44
2022/01/15 07:38:09;;;;;;;1.55;0.23;;;;;;;;;;1850399;77;26737;-32
2022/01/15 07:40:36;;;;;;;3.05;0.60;;;;;;;;;;1839235;77;26343;-41
2022/01/15 07:43:04;;;;;;;2.17;0.47;;;;;;;;;;1835957;77;26276;-28
2022/01/15 07:45:31;;;;;;;0.55;0.40;;;;;;;;;;1841873;77;26320;-27
2022/01/15 07:47:58;;;;;;;0.60;0.60;;;;;;;;;;1838922;77;26237;-37
2022/01/15 07:50:26;;;;;;;4.35;0.57;;;;;;;;;;1841810;78;26213;-41
2022/01/15 07:52:54;;;;;;;1.52;0.60;;;;;;;;;;1846564;77;26736;-28
2022/01/15 07:55:22;;;;;;;3.60;0.57;;;;;;;;;;1802697;78;26267;-28
2022/01/15 07:57:50;;;;;;;1.10;0.60;;;;;;;;;;1840249;77;26284;-28
2022/01/15 08:00:18;;;;;;;2.25;0.53;;;;;;;;;;1835840;77;26689;-30
2022/01/15 08:02:45;;;;;;;1.07;0.55;;;;;;;;;;1834442;77;26377;-39
2022/01/15 08:05:13;;;;;;;4.80;0.97;;;;;;;;;;1840167;78;28616;-44
2022/01/15 08:07:40;;;;;;;10.25;0.90;;;;;;;;;;1832073;77;26244;-28
2022/01/15 08:10:08;;;;;;;7.30;0.80;;;;;;;;;;1838727;77;26280;-28
2022/01/15 08:12:37;;;;;;;3.17;0.80;;;;;;;;;;1842515;77;26780;-37
2022/01/15 08:15:05;;;;;;;4.85;0.62;;;;;;;;;;1832363;78;26572;-39
2022/01/15 08:17:32;;;;;;;5.87;0.80;;;;;;;;;;1831429;77;28662;-28
2022/01/15 08:19:59;;;;;;;10.32;1.00;;;;;;;;;;1839918;78;26882;-27
2022/01/15 08:22:27;;;;;;;14.85;1.40;;;;;;;;;;1836926;77;28669;-28
2022/01/15 08:24:54;;;;;;;8.60;0.80;;;;;;;;;;1837216;77;26265;-29
2022/01/15 08:27:22;;;;;;;8.23;0.65;;;;;;;;;;1830937;77;26201;-28
2022/01/15 08:29:49;;;;;;;3.40;0.65;;;;;;;;;;1838055;77;26312;-31
2022/01/15 08:32:16;;;;;;;4.70;0.90;;;;;;;;;;1842266;77;26257;-30
2022/01/15 08:34:45;;;;;;;2.02;0.70;;;;;;;;;;1838902;77;26642;-30
2022/01/15 08:37:12;;;;;;;3.20;0.68;;;;;;;;;;1838878;76;26308;-31
2022/01/15 08:39:40;;;;;;;3.75;0.70;;;;;;;;;;1862745;76;26249;-32
2022/01/15 08:42:09;;;;;;;0.42;0.42;;;;;;;;;;1845868;76;25819;-30
2022/01/15 08:44:41;;;;;;;3.58;0.50;;;;;;;;;;1855152;76;26334;-27
2022/01/15 08:47:05;;;;;;;2.42;0.60;;;;;;;;;;1830201;76;26343;-30
2022/01/15 08:49:33;;;;;;;2.35;0.70;;;;;;;;;;1869258;76;26231;-30
2022/01/15 08:52:00;;;;;;;5.28;0.57;;;;;;;;;;1852628;76;26328;-30
2022/01/15 08:54:27;;;;;;;5.90;0.50;;;;;;;;;;1845689;76;26260;-33
2022/01/15 08:56:55;;;;;;;1.37;0.60;;;;;;;;;;1845624;76;27394;-32
2022/01/15 08:59:27;;;;;;;2.05;0.50;;;;;;;;;;1844814;76;26339;-27
2022/01/15 09:01:58;;;;;;;2.60;0.55;;;;;;;;;;1859624;76;26784;-31
2022/01/15 09:04:26;;;;;;;1.52;0.60;;;;;;;;;;1852584;76;26285;-29
2022/01/15 09:06:54;;;;;;;0.53;0.50;;;;;;;;;;1849076;76;26842;-30
2022/01/15 09:09:22;;;;;;;5.22;0.55;;;;;;;;;;1845423;76;26721;-25
2022/01/15 09:11:49;;;;;;;2.45;0.45;;;;;;;;;;1848898;76;26317;-31
2022/01/15 09:14:17;;;;;;;1.98;0.40;;;;;;;;;;1838500;76;26366;-28
2022/01/15 09:16:44;;;;;;;0.37;0.30;;;;;;;;;;1846711;76;27098;-30
2022/01/15 09:19:12;;;;;;;1.65;0.53;;;;;;;;;;1848170;76;26311;-31
2022/01/15 09:21:39;;;;;;;0.53;0.53;;;;;;;;;;1844310;76;26246;-29
2022/01/15 09:24:06;;;;;;;0.62;0.50;;;;;;;;;;1848196;76;26305;-28
2022/01/15 09:27:01;;;;;;;1.80;0.47;;;;;;;;;;1847820;76;26198;-26
2022/01/15 09:32:05;;;;;;;0.50;0.50;;;;;;;;;;1859066;76;26505;-35
2022/01/15 09:34:34;;;;;;;0.60;0.40;;;;;;;;;;1847060;76;26208;-31
2022/01/15 09:37:02;;;;;;;3.55;0.70;;;;;;;;;;1843219;76;26304;-27
2022/01/15 09:39:30;;;;;;;0.55;0.45;;;;;;;;;;1839876;76;26269;-28
2022/01/15 09:41:57;;;;;;;2.67;0.70;;;;;;;;;;1847104;76;26269;-28
2022/01/15 09:44:26;;;;;;;0.62;0.30;;;;;;;;;;1847069;76;26262;-28
2022/01/15 09:46:54;;;;;;;0.40;0.40;;;;;;;;;;1848200;76;26312;-32
2022/01/15 09:49:23;;;;;;;1.00;0.40;;;;;;;;;;1860124;76;27411;-29
2022/01/15 09:51:51;;;;;;;0.37;0.37;;;;;;;;;;1851607;76;26235;-34
2022/01/15 09:54:19;;;;;;;0.47;0.40;;;;;;;;;;1855285;76;26262;-29
2022/01/15 09:56:49;;;;;;;1.40;0.47;;;;;;;;;;1843068;76;26265;-33
2022/01/15 09:59:18;;;;;;;0.30;0.30;;;;;;;;;;1859598;76;26286;-27
2022/01/15 10:01:46;;;;;;;1.80;0.40;;;;;;;;;;1843671;76;26275;-29
2022/01/15 10:04:13;;;;;;;0.53;0.53;;;;;;;;;;1839157;76;26718;-33
2022/01/15 10:06:59;;;;;;;1.00;0.40;;;;;;;;;;1847728;76;26772;-30
2022/01/15 10:09:26;;;;;;;0.50;0.40;;;;;;;;;;1846712;76;26270;-27
2022/01/15 10:11:53;;;;;;;0.47;0.37;;;;;;;;;;1847844;76;26327;-30
2022/01/15 10:14:24;;;;;;;0.68;0.47;;;;;;;;;;1844235;76;26289;-31
2022/01/15 10:16:52;;;;;;;0.33;0.33;;;;;;;;;;1848726;76;26277;-30
2022/01/15 10:19:27;;;;;;;0.30;0.30;;;;;;;;;;1844199;76;26587;-34
2022/01/15 10:22:12;;;;;;;0.30;0.30;;;;;;;;;;1853519;76;26261;-33
2022/01/15 10:24:41;;;;;;;0.33;0.33;;;;;;;;;;1849155;76;26702;-27
2022/01/15 10:27:25;;;;;;;0.35;0.35;;;;;;;;;;1832746;76;26276;-29
2022/01/15 10:30:06;;;;;;;0.25;0.25;;;;;;;;;;1845215;76;26358;-28
2022/01/15 10:32:35;;;;;;;0.28;0.28;;;;;;;;;;1842405;76;26353;-29
2022/01/15 10:35:04;;;;;;;1.27;0.50;;;;;;;;;;1841955;76;26304;-29
2022/01/15 10:37:36;;;;;;;0.75;0.42;;;;;;;;;;1846008;76;26949;-26
2022/01/15 10:40:03;;;;;;;0.30;0.30;;;;;;;;;;1852373;76;26226;-29
2022/01/15 10:42:31;;;;;;;0.57;0.33;;;;;;;;;;1834268;76;26935;-30
2022/01/15 10:44:59;;;;;;;0.40;0.40;;;;;;;;;;1841511;76;26253;-30
2022/01/15 10:47:28;;;;;;;0.40;0.40;;;;;;;;;;1848097;76;27353;-33
2022/01/15 10:50:01;;;;;;;0.45;0.45;;;;;;;;;;1841835;76;26272;-29
2022/01/15 10:52:29;;;;;;;2.00;0.47;;;;;;;;;;1844264;76;26273;-31
2022/01/15 10:54:58;;;;;;;1.27;0.50;;;;;;;;;;1841300;76;26957;-29
2022/01/15 10:57:27;;;;;;;0.60;0.40;;;;;;;;;;1845980;76;26340;-31
2022/01/15 10:59:58;;;;;;;2.30;0.40;;;;;;;;;;1846447;76;26276;-32
2022/01/15 11:02:26;;;;;;;2.27;0.70;;;;;;;;;;1843491;76;26330;-34
2022/01/15 11:04:53;;;;;;;0.40;0.40;;;;;;;;;;1850035;76;26257;-33
2022/01/15 11:07:20;;;;;;;0.40;0.40;;;;;;;;;;1846207;76;26280;-27
2022/01/15 11:09:50;;;;;;;0.82;0.45;;;;;;;;;;1844704;76;26327;-28
2022/01/15 11:12:19;;;;;;;1.95;0.47;;;;;;;;;;1845486;76;26367;-33
2022/01/15 11:14:46;;;;;;;2.00;0.30;;;;;;;;;;1843916;76;26384;-31
2022/01/15 11:17:13;;;;;;;0.40;0.40;;;;;;;;;;1840995;76;26320;-38
2022/01/15 11:19:42;;;;;;;0.40;0.40;;;;;;;;;;1839572;76;26233;-30
2022/01/15 11:22:09;;;;;;;1.52;0.50;;;;;;;;;;1844325;76;26281;-34
2022/01/15 11:24:37;;;;;;;4.17;0.55;;;;;;;;;;1846008;76;26328;-36
2022/01/15 11:27:05;;;;;;;0.78;0.33;;;;;;;;;;1846096;76;26277;-36
2022/01/15 11:29:32;;;;;;;0.47;0.47;;;;;;;;;;1830411;76;26257;-33
2022/01/15 11:32:01;;;;;;;0.68;0.50;;;;;;;;;;1843001;76;26814;-31
2022/01/15 11:34:29;;;;;;;2.50;0.50;;;;;;;;;;1846131;76;26725;-30
2022/01/15 11:36:56;;;;;;;0.72;0.40;;;;;;;;;;1847040;76;26300;-32
2022/01/15 11:39:25;;;;;;;0.93;0.40;;;;;;;;;;1859196;75;26362;-29
2022/01/15 11:41:53;;;;;;;0.47;0.40;;;;;;;;;;1861314;75;26779;-31
2022/01/15 11:44:22;;;;;;;0.62;0.40;;;;;;;;;;1860961;75;26796;-36
2022/01/15 11:47:00;;;;;;;0.60;0.40;;;;;;;;;;1850884;75;26295;-34
2022/01/15 11:49:42;;;;;;;0.68;0.45;;;;;;;;;;1860096;75;26385;-30
2022/01/15 11:52:14;;;;;;;0.55;0.50;;;;;;;;;;1859166;76;26792;-27
2022/01/15 11:54:51;;;;;;;0.40;0.40;;;;;;;;;;1859634;75;26275;-30
2022/01/15 11:57:34;;;;;;;0.93;0.37;;;;;;;;;;1857778;75;26213;-29
2022/01/15 12:00:03;;;;;;;0.30;0.30;;;;;;;;;;1852056;75;25788;-28
2022/01/15 12:02:34;;;;;;;0.40;0.33;;;;;;;;;;1860945;75;26913;-33
2022/01/15 12:05:18;;;;;;;0.30;0.30;;;;;;;;;;1867430;75;26239;-27
2022/01/15 12:07:50;;;;;;;0.30;0.30;;;;;;;;;;1855006;75;26633;-36
2022/01/15 12:10:18;;;;;;;0.50;0.50;;;;;;;;;;1844190;75;26705;-36
2022/01/15 12:12:47;;;;;;;0.50;0.50;;;;;;;;;;1865294;75;26354;-33
2022/01/15 12:15:17;;;;;;;0.50;0.50;;;;;;;;;;1868334;75;26280;-29
2022/01/15 12:17:47;;;;;;;3.77;0.68;;;;;;;;;;1870043;75;26334;-34
2022/01/15 12:20:21;;;;;;;1.15;0.50;;;;;;;;;;1875829;75;26317;-28
2022/01/15 12:22:50;;;;;;;2.42;0.60;;;;;;;;;;1870744;75;26300;-35
2022/01/15 12:25:19;;;;;;;1.57;0.70;;;;;;;;;;1865349;75;26247;-28
2022/01/15 12:27:48;;;;;;;1.00;0.80;;;;;;;;;;1867531;75;26994;-28
2022/01/15 12:30:16;;;;;;;1.30;0.80;;;;;;;;;;1870673;75;26354;-30
2022/01/15 12:32:45;;;;;;;0.98;0.68;;;;;;;;;;1873401;75;26311;-28
2022/01/15 12:35:15;;;;;;;1.07;0.75;;;;;;;;;;1869717;75;25789;-27
2022/01/15 12:37:53;;;;;;;1.05;0.93;;;;;;;;;;1870402;75;26208;-29
2022/01/15 12:40:22;;;;;;;1.92;0.90;;;;;;;;;;1872566;75;26220;-27
2022/01/15 12:42:56;;;;;;;1.62;1.10;;;;;;;;;;1882522;75;26309;-30
2022/01/15 12:45:24;;;;;;;1.87;1.10;;;;;;;;;;1870577;75;26343;-31
2022/01/15 12:47:51;;;;;;;2.67;1.20;;;;;;;;;;1865219;75;26291;-31
2022/01/15 12:50:19;;;;;;;2.55;1.17;;;;;;;;;;1860092;75;26330;-27
2022/01/15 12:52:47;;;;;;;2.25;1.25;;;;;;;;;;1862268;75;26259;-31
2022/01/15 12:55:14;;;;;;;2.25;1.10;;;;;;;;;;1871122;75;26318;-27
2022/01/15 12:57:45;;;;;;;2.22;1.50;;;;;;;;;;1866844;75;26262;-31
2022/01/15 13:00:14;;;;;;;1.55;1.10;;;;;;;;;;1863287;75;26330;-37
2022/01/15 13:02:42;;;;;;;1.20;1.10;;;;;;;;;;1874553;75;25902;-32
2022/01/15 13:05:11;;;;;;;2.58;1.40;;;;;;;;;;1856553;75;26330;-27
2022/01/15 13:07:51;;;;;;;4.28;1.75;;;;;;;;;;1870618;75;26320;-30
2022/01/15 13:10:20;;;;;;;1.57;1.45;;;;;;;;;;1845428;75;26258;-26
2022/01/15 13:12:48;;;;;;;3.33;1.70;;;;;;;;;;1857715;75;26272;-36
2022/01/15 13:15:22;;;;;;;3.45;1.62;;;;;;;;;;1871495;75;26270;-34
2022/01/15 13:17:49;;;;;;;2.58;1.42;;;;;;;;;;1861948;75;26264;-34
2022/01/15 13:20:33;;;;;;;1.92;1.80;;;;;;;;;;1884414;75;26231;-27
2022/01/15 13:23:02;;;;;;;5.20;1.92;;;;;;;;;;1861986;76;26357;-33
2022/01/15 13:25:31;;;;;;;3.17;1.67;;;;;;;;;;1859169;76;26830;-30
2022/01/15 13:27:58;;;;;;;2.55;2.05;;;;;;;;;;1883626;75;26332;-28
2022/01/15 13:30:26;;;;;;;4.10;2.10;;;;;;;;;;1862013;76;26785;-26
2022/01/15 13:32:58;;;;;;;3.80;2.30;;;;;;;;;;1886675;75;26242;-30
2022/01/15 13:35:27;;;;;;;4.58;2.30;;;;;;;;;;1866693;75;26276;-27
2022/01/15 13:37:56;;;;;;;7.33;2.30;;;;;;;;;;1862647;75;26214;-33
2022/01/15 13:40:34;;;;;;;5.70;2.00;;;;;;;;;;1858483;75;26358;-26
2022/01/15 13:43:01;;;;;;;3.02;1.85;;;;;;;;;;1856975;76;26348;-31
2022/01/15 13:45:30;;;;;;;3.42;1.80;;;;;;;;;;1864507;76;26334;-30
2022/01/15 13:48:07;;;;;;;4.87;2.12;;;;;;;;;;1848546;76;26206;-30
2022/01/15 13:53:39;;;;;;;2.58;2.22;;;;;;;;;;1858746;76;26252;-32
2022/01/15 13:56:10;;;;;;;8.20;2.40;;;;;;;;;;1860637;76;26251;-29
2022/01/15 13:58:38;;;;;;;4.30;1.75;;;;;;;;;;1851331;76;26338;-30
2022/01/15 14:01:22;;;;;;;4.35;1.85;;;;;;;;;;1851273;76;26259;-27
2022/01/15 14:03:50;;;;;;;3.02;1.50;;;;;;;;;;1855105;76;26253;-30
2022/01/15 14:06:18;;;;;;;1.55;1.45;;;;;;;;;;1842021;76;26349;-28
2022/01/15 14:08:45;;;;;;;2.02;1.60;;;;;;;;;;1853138;76;26265;-29
2022/01/15 14:11:14;;;;;;;2.22;1.40;;;;;;;;;;1857904;76;26330;-31
2022/01/15 14:13:42;;;;;;;2.62;1.75;;;;;;;;;;1875965;76;26827;-31
2022/01/15 14:16:23;;;;;;;4.90;1.60;;;;;;;;;;1855278;76;26288;-31
2022/01/15 14:18:59;;;;;;;3.37;1.45;;;;;;;;;;1853303;76;26300;-29
2022/01/15 14:24:03;;;;;;;1.87;1.20;;;;;;;;;;1853122;76;26296;-30
2022/01/15 14:26:30;;;;;;;2.85;1.20;;;;;;;;;;1854974;76;26307;-30
2022/01/15 14:28:58;;;;;;;1.02;1.02;;;;;;;;;;1843411;76;26264;-29
2022/01/15 14:31:27;;;;;;;1.45;1.30;;;;;;;;;;1851802;76;26286;-36
2022/01/15 14:33:56;;;;;;;2.35;1.20;;;;;;;;;;1864181;76;26300;-29
2022/01/15 14:36:24;;;;;;;1.65;1.32;;;;;;;;;;1861483;76;26425;-38
2022/01/15 14:38:51;;;;;;;2.62;1.12;;;;;;;;;;1849623;76;28565;-32
2022/01/15 14:41:19;;;;;;;1.12;1.05;;;;;;;;;;1852713;76;26354;-27
2022/01/15 14:43:46;;;;;;;5.60;1.10;;;;;;;;;;1850096;76;26242;-32
2022/01/15 14:46:13;;;;;;;1.30;1.20;;;;;;;;;;1840152;76;26269;-38
2022/01/15 14:48:41;;;;;;;0.90;0.90;;;;;;;;;;1843051;76;26753;-28
2022/01/15 14:51:13;;;;;;;1.17;1.00;;;;;;;;;;1856731;76;26273;-30
2022/01/15 14:53:37;;;;;;;1.00;1.00;;;;;;;;;;1853124;76;26309;-33
2022/01/15 14:56:05;;;;;;;1.25;1.00;;;;;;;;;;1855863;76;26735;-37
2022/01/15 14:58:32;;;;;;;1.62;1.00;;;;;;;;;;1851268;76;26246;-30
2022/01/15 15:00:59;;;;;;;2.62;1.00;;;;;;;;;;1852028;76;26628;-33
2022/01/15 15:03:27;;;;;;;1.02;0.90;;;;;;;;;;1856709;75;26767;-30
2022/01/15 15:05:55;;;;;;;1.20;1.00;;;;;;;;;;1855078;76;28217;-31
2022/01/15 15:08:22;;;;;;;0.75;0.75;;;;;;;;;;1848785;76;26261;-27
2022/01/15 15:10:52;;;;;;;1.25;0.88;;;;;;;;;;1854746;76;26271;-28
2022/01/15 15:13:22;;;;;;;3.27;0.80;;;;;;;;;;1852343;76;26741;-26